KAFK

Details ICAO KAFK
Name NEBRASKA CITY MUNI
Region United States
Timezone America/Chicago (UTC-5.0)
Plans Departing 4
Arriving 5
Stats Elevation 1,162 ft / 354 m (AMSL)
Location 40.606338° -95.867149°
Runways 2
Magnetic Variation 2.483° E
Sunrise 2018-05-27 10:58:51 UTC / 2018-05-27 05:58:51 Local
Sunset 2018-05-28 01:45:20 UTC / 2018-05-27 20:45:20 Local
Advertisement - Login to hide

Runways

ID Width Length Bearing (true) Bearing (mag) Surface Threshold Offset Overrun Length
05 151 ft / 46 m 2,439 ft / 743 m 46.66° 44.18° Grass 0 ft / 0 m 0 ft / 0 m
15 75 ft / 23 m 4,509 ft / 1,374 m 151.60° 149.12° Concrete 0 ft / 0 m 0 ft / 0 m
23 151 ft / 46 m 2,439 ft / 743 m 226.66° 224.18° Grass 0 ft / 0 m 0 ft / 0 m
33 75 ft / 23 m 4,509 ft / 1,374 m 331.60° 329.12° Concrete 0 ft / 0 m 0 ft / 0 m

Map

Weather


0- 5 10 15 20 25 30 35+ Temperature / ° C

Clouds and Precipitation
Forecast for 2018-05-27 12:00 UTC. Updated 3 hours ago

Ground ~20,000 ft ~40,000 ft Winds

METAR

KAFK 271415Z AUTO 24012KT 10SM CLR 29/19 A2987 RMK AO2 T02900189

TAF

Not found

Frequencies

Recorded 128.32 MHz AWOS 3
Approach 120.10 MHz OMAHA APP/DEP
Unicom 122.70 MHz CTAF/UNICOM
Warning: Do not use this data for real-world aviation or navigation. No guarantee of current accuracy is given.